Time;durP1;ratioP1;P1;durP2;ratioP2;P2;SDS_P1;SDS_P2;PMS_P1;PMS_P2;Temp;Humidity;BMP_temperature;BMP_pressure;BME280_temperature;BME280_humidity;BME280_pressure;Samples;Min_cycle;Max_cycle;Signal;HPM_P1;HPM_P2
2021/04/24 00:00:12;;;;;;;;;;;;;;;6.56;100.00;101996.19;1899757;75;21184;-72
2021/04/24 00:02:42;;;;;;;;;;;;;;;6.58;100.00;101996.97;1900639;75;20136;-71
2021/04/24 00:05:23;;;;;;;;;;;;;;;6.59;100.00;101985.34;1900936;75;20226;-71
2021/04/24 00:07:53;;;;;;;;;;;;;;;6.62;100.00;101985.69;1898923;75;20140;-73
2021/04/24 00:10:21;;;;;;;;;;;;;;;6.62;100.00;101980.53;1898799;75;20492;-73
2021/04/24 00:12:49;;;;;;;;;;;;;;;6.60;100.00;101979.74;1898952;75;21253;-73
2021/04/24 00:15:17;;;;;;;;;;;;;;;6.60;100.00;101989.63;1898976;75;20187;-73
2021/04/24 00:17:45;;;;;;;;;;;;;;;6.60;100.00;101992.20;1899265;75;20104;-73
2021/04/24 00:20:16;;;;;;;;;;;;;;;6.60;100.00;101990.06;1906253;75;20128;-72
2021/04/24 00:22:44;;;;;;;;;;;;;;;6.58;100.00;101995.24;1907897;75;20202;-73
2021/04/24 00:25:12;;;;;;;;;;;;;;;6.55;100.00;101997.06;1907812;75;22330;-72
2021/04/24 00:27:40;;;;;;;;;;;;;;;6.49;100.00;101999.37;1907662;75;20239;-72
2021/04/24 00:30:10;;;;;;;;;;;;;;;6.43;100.00;101998.26;1907809;75;20219;-72
2021/04/24 00:32:39;;;;;;;;;;;;;;;6.41;100.00;101997.91;1907811;75;20589;-72
2021/04/24 00:35:08;;;;;;;;;;;;;;;6.42;100.00;101998.28;1907703;75;20245;-72
2021/04/24 00:37:37;;;;;;;;;;;;;;;6.39;100.00;102005.67;1907776;75;21352;-72
2021/04/24 00:40:07;;;;;;;;;;;;;;;6.37;100.00;102004.44;1907636;75;20254;-72
2021/04/24 00:42:37;;;;;;;;;;;;;;;6.39;100.00;102007.81;1907789;75;20202;-72
2021/04/24 00:45:07;;;;;;;;;;;;;;;6.42;100.00;102004.30;1907661;75;20273;-72
2021/04/24 00:47:35;;;;;;;;;;;;;;;6.44;100.00;102002.98;1907771;75;20127;-75
2021/04/24 00:50:07;;;;;;;;;;;;;;;6.45;100.00;101998.20;1907706;75;21181;-73
2021/04/24 00:52:35;;;;;;;;;;;;;;;6.46;100.00;101999.90;1907757;75;20134;-73
2021/04/24 00:55:04;;;;;;;;;;;;;;;6.48;100.00;101992.98;1907935;75;20603;-76
2021/04/24 00:57:33;;;;;;;;;;;;;;;6.48;100.00;101998.97;1907524;75;20124;-73
2021/04/24 01:00:01;;;;;;;;;;;;;;;6.48;100.00;101999.44;1907627;75;20234;-72
2021/04/24 01:02:31;;;;;;;;;;;;;;;6.48;100.00;101996.38;1907956;75;21035;-71
2021/04/24 01:04:59;;;;;;;;;;;;;;;6.49;100.00;102002.39;1907625;75;21048;-72
2021/04/24 01:07:27;;;;;;;;;;;;;;;6.46;100.00;101996.88;1907966;75;20557;-72
2021/04/24 01:09:56;;;;;;;;;;;;;;;6.50;100.00;102006.67;1907623;75;20187;-72
2021/04/24 01:12:24;;;;;;;;;;;;;;;6.48;100.00;102002.83;1907786;75;20563;-72
2021/04/24 01:14:52;;;;;;;;;;;;;;;6.44;100.00;101996.53;1907887;75;21122;-72
2021/04/24 01:17:20;;;;;;;;;;;;;;;6.41;100.00;102001.34;1907784;75;20927;-75
2021/04/24 01:19:50;;;;;;;;;;;;;;;6.41;100.00;102007.78;1903935;75;20223;-72
2021/04/24 01:22:19;;;;;;;;;;;;;;;6.43;100.00;102003.86;1901196;75;20205;-72
2021/04/24 01:24:48;;;;;;;;;;;;;;;6.45;100.00;102006.78;1901077;75;20211;-72
2021/04/24 01:27:17;;;;;;;;;;;;;;;6.52;100.00;102009.60;1901118;75;21591;-72
2021/04/24 01:29:45;;;;;;;;;;;;;;;6.58;100.00;102011.16;1900911;75;20211;-73
2021/04/24 01:32:12;;;;;;;;;;;;;;;6.62;100.00;102008.46;1901269;75;20207;-73
2021/04/24 01:34:42;;;;;;;;;;;;;;;6.67;100.00;102007.06;1901177;75;20729;-73
2021/04/24 01:37:10;;;;;;;;;;;;;;;6.71;100.00;102009.92;1901246;75;20155;-72
2021/04/24 01:39:38;;;;;;;;;;;;;;;6.74;100.00;102007.26;1901186;75;21647;-72
2021/04/24 01:42:06;;;;;;;;;;;;;;;6.76;100.00;102004.21;1901051;75;20256;-72
2021/04/24 01:44:34;;;;;;;;;;;;;;;6.78;100.00;102008.88;1901091;75;20131;-72
2021/04/24 01:47:08;;;;;;;;;;;;;;;6.81;100.00;102014.79;1901190;75;20186;-72
2021/04/24 01:49:36;;;;;;;;;;;;;;;6.84;100.00;102013.41;1901080;75;20194;-73
2021/04/24 01:52:04;;;;;;;;;;;;;;;6.87;100.00;102002.14;1901153;75;21188;-72
2021/04/24 01:54:32;;;;;;;;;;;;;;;6.85;100.00;102008.66;1901143;75;20215;-73
2021/04/24 01:57:01;;;;;;;;;;;;;;;6.83;100.00;102005.70;1901058;75;20238;-72
2021/04/24 01:59:29;;;;;;;;;;;;;;;6.81;100.00;102012.65;1901280;75;20934;-72
2021/04/24 02:01:59;;;;;;;;;;;;;;;6.81;100.00;102015.23;1901050;75;20207;-73
2021/04/24 02:04:27;;;;;;;;;;;;;;;6.80;100.00;102009.66;1901038;75;21758;-73
2021/04/24 02:06:55;;;;;;;;;;;;;;;6.81;100.00;102004.91;1901156;75;20187;-74
2021/04/24 02:09:24;;;;;;;;;;;;;;;6.81;100.00;102004.91;1900922;75;20219;-74
2021/04/24 02:12:06;;;;;;;;;;;;;;;6.82;100.00;102012.62;1901095;75;20151;-75
2021/04/24 02:14:45;;;;;;;;;;;;;;;6.81;100.00;102013.50;1866192;75;36630;-74
2021/04/24 02:17:17;;;;;;;;;;;;;;;6.80;100.00;102016.11;1901042;75;21124;-74
2021/04/24 02:19:46;;;;;;;;;;;;;;;6.80;100.00;102021.27;1900060;75;20222;-73
2021/04/24 02:22:14;;;;;;;;;;;;;;;6.81;100.00;102015.23;1899083;75;20473;-73
2021/04/24 02:24:44;;;;;;;;;;;;;;;6.81;100.00;102012.65;1898838;75;20217;-72
2021/04/24 02:27:12;;;;;;;;;;;;;;;6.80;100.00;102013.53;1898961;75;20143;-72
2021/04/24 02:29:41;;;;;;;;;;;;;;;6.80;100.00;102015.67;1899070;75;21223;-71
2021/04/24 02:32:09;;;;;;;;;;;;;;;6.81;100.00;102017.81;1898924;75;20942;-73
2021/04/24 02:34:40;;;;;;;;;;;;;;;6.81;100.00;102017.37;1898907;75;20187;-74
2021/04/24 02:37:08;;;;;;;;;;;;;;;6.82;100.00;102017.78;1898564;75;20131;-74
2021/04/24 02:39:37;;;;;;;;;;;;;;;6.85;100.00;102017.69;1898847;75;20214;-75
2021/04/24 02:42:08;;;;;;;;;;;;;;;6.89;100.00;102021.03;1899005;75;21181;-74
2021/04/24 02:44:37;;;;;;;;;;;;;;;6.87;100.00;102017.19;1899021;75;20143;-74
2021/04/24 02:47:04;;;;;;;;;;;;;;;6.86;100.00;102015.48;1898834;75;20167;-74
2021/04/24 02:49:33;;;;;;;;;;;;;;;6.86;100.00;102017.25;1898929;75;20558;-72
2021/04/24 02:52:01;;;;;;;;;;;;;;;6.85;100.00;102013.82;1899101;75;20493;-74
2021/04/24 02:54:29;;;;;;;;;;;;;;;6.85;100.00;102014.27;1898982;75;21178;-74
2021/04/24 02:56:57;;;;;;;;;;;;;;;6.84;100.00;102016.43;1898954;75;20730;-74
2021/04/24 02:59:25;;;;;;;;;;;;;;;6.87;100.00;102026.66;1898816;75;20119;-74
2021/04/24 03:01:53;;;;;;;;;;;;;;;6.90;100.00;102030.44;1898936;75;20112;-74
2021/04/24 03:04:21;;;;;;;;;;;;;;;6.93;100.00;102030.34;1898886;75;20205;-74
2021/04/24 03:06:50;;;;;;;;;;;;;;;6.96;100.00;102027.67;1898927;75;22193;-73
2021/04/24 03:09:20;;;;;;;;;;;;;;;6.98;100.00;102035.39;1898886;75;20119;-75
2021/04/24 03:11:47;;;;;;;;;;;;;;;6.96;100.00;102027.67;1898993;75;20187;-74
2021/04/24 03:14:15;;;;;;;;;;;;;;;6.93;99.99;102032.93;1898627;75;20278;-73
2021/04/24 03:16:43;;;;;;;;;;;;;;;6.92;99.79;102032.55;1898929;75;20132;-76
2021/04/24 03:19:10;;;;;;;;;;;;;;;6.92;99.54;102036.42;1899340;75;22515;-75
2021/04/24 03:21:38;;;;;;;;;;;;;;;6.89;99.32;102028.77;1907869;75;20303;-75
2021/04/24 03:24:07;;;;;;;;;;;;;;;6.86;99.18;102033.55;1907881;75;20136;-71
2021/04/24 03:26:36;;;;;;;;;;;;;;;6.83;99.01;102032.34;1908081;75;20211;-76
2021/04/24 03:29:04;;;;;;;;;;;;;;;6.81;98.80;102037.16;1907875;75;20282;-76
2021/04/24 03:31:32;;;;;;;;;;;;;;;6.80;98.71;102038.04;1907847;75;21184;-74
2021/04/24 03:34:02;;;;;;;;;;;;;;;6.78;98.64;102035.52;1907620;75;20191;-75
2021/04/24 03:36:30;;;;;;;;;;;;;;;6.80;98.66;102038.04;1907531;75;20287;-75
2021/04/24 03:38:58;;;;;;;;;;;;;;;6.78;98.63;102039.39;1907618;75;20779;-75
2021/04/24 03:41:26;;;;;;;;;;;;;;;6.78;98.66;102039.83;1907970;75;20485;-75
2021/04/24 03:43:54;;;;;;;;;;;;;;;6.77;98.67;102040.70;1907838;75;22095;-74
2021/04/24 03:46:24;;;;;;;;;;;;;;;6.77;98.65;102049.73;1907764;75;20234;-75
2021/04/24 03:48:53;;;;;;;;;;;;;;;6.77;98.59;102054.45;1907811;75;20294;-75
2021/04/24 03:51:20;;;;;;;;;;;;;;;6.79;98.61;102053.14;1907794;75;21211;-74
2021/04/24 03:53:48;;;;;;;;;;;;;;;6.81;98.66;102052.20;1907771;75;20485;-75
2021/04/24 03:56:17;;;;;;;;;;;;;;;6.84;98.67;102056.42;1907768;75;21636;-72
2021/04/24 03:58:45;;;;;;;;;;;;;;;6.87;98.73;102056.33;1907811;75;20825;-75
2021/04/24 04:01:12;;;;;;;;;;;;;;;6.89;98.68;102064.42;1907847;75;20142;-75
2021/04/24 04:03:40;;;;;;;;;;;;;;;6.94;98.68;102065.59;1907560;75;20247;-74
2021/04/24 04:06:08;;;;;;;;;;;;;;;7.00;98.71;102069.73;1907768;75;20211;-75
2021/04/24 04:08:37;;;;;;;;;;;;;;;7.03;98.73;102069.20;1907647;75;21317;-75
2021/04/24 04:11:05;;;;;;;;;;;;;;;7.07;98.61;102073.39;1907735;75;20231;-75
2021/04/24 04:13:34;;;;;;;;;;;;;;;7.09;98.35;102073.33;1907798;75;20135;-73
2021/04/24 04:16:02;;;;;;;;;;;;;;;7.10;98.23;102073.30;1907889;75;20553;-73
2021/04/24 04:18:35;;;;;;;;;;;;;;;7.14;97.61;102085.23;1907817;75;20135;-74
2021/04/24 04:21:00;;;;;;;;;;;;;;;7.16;97.02;102082.59;1901252;75;21357;-74
2021/04/24 04:23:28;;;;;;;;;;;;;;;7.19;96.82;102091.54;1898802;75;20215;-74
2021/04/24 04:25:57;;;;;;;;;;;;;;;7.22;96.57;102093.59;1898923;75;20247;-75
2021/04/24 04:28:26;;;;;;;;;;;;;;;7.27;96.33;102095.61;1898963;75;20486;-75
2021/04/24 04:30:54;;;;;;;;;;;;;;;7.29;96.18;102096.84;1898880;75;20238;-72
2021/04/24 04:33:22;;;;;;;;;;;;;;;7.32;96.18;102102.76;1898919;75;21226;-73
2021/04/24 04:35:51;;;;;;;;;;;;;;;7.38;96.26;102097.84;1898888;75;20230;-72
2021/04/24 04:38:19;;;;;;;;;;;;;;;7.44;95.17;102101.54;1898689;75;20139;-72
2021/04/24 04:40:47;;;;;;;;;;;;;;;7.49;94.52;102108.72;1898873;75;20960;-73
2021/04/24 04:43:15;;;;;;;;;;;;;;;7.55;93.91;102111.11;1899037;75;20205;-74
2021/04/24 04:45:44;;;;;;;;;;;;;;;7.58;93.76;102111.46;1898912;75;21347;-74
2021/04/24 04:48:12;;;;;;;;;;;;;;;7.62;93.55;102111.33;1898873;75;20314;-73
2021/04/24 04:50:41;;;;;;;;;;;;;;;7.68;93.59;102109.00;1898989;75;20155;-73
2021/04/24 04:53:09;;;;;;;;;;;;;;;7.74;93.15;102110.95;1898934;75;21001;-74
2021/04/24 04:55:39;;;;;;;;;;;;;;;7.78;92.08;102108.67;1899137;75;20328;-72
2021/04/24 04:58:07;;;;;;;;;;;;;;;7.83;91.82;102108.52;1899117;75;20922;-73
2021/04/24 05:00:34;;;;;;;;;;;;;;;7.87;92.05;102106.23;1898984;75;20710;-73
2021/04/24 05:03:02;;;;;;;;;;;;;;;7.92;92.06;102106.48;1898850;75;20619;-73
2021/04/24 05:05:30;;;;;;;;;;;;;;;7.99;92.14;102110.56;1899004;75;21164;-74
2021/04/24 05:08:00;;;;;;;;;;;;;;;8.08;92.38;102120.20;1899143;75;20214;-73
2021/04/24 05:10:28;;;;;;;;;;;;;;;8.18;92.08;102113.39;1898901;75;22538;-74
2021/04/24 05:12:58;;;;;;;;;;;;;;;8.28;91.35;102113.97;1898820;75;20254;-73
2021/04/24 05:15:26;;;;;;;;;;;;;;;8.37;90.64;102108.48;1899049;75;20584;-73
2021/04/24 05:17:54;;;;;;;;;;;;;;;8.47;89.40;102115.89;1899111;75;21217;-72
2021/04/24 05:20:21;;;;;;;;;;;;;;;8.56;88.54;102116.45;1899282;75;20254;-74
2021/04/24 05:22:51;;;;;;;;;;;;;;;8.63;88.07;102114.91;1900996;75;21116;-73
2021/04/24 05:25:19;;;;;;;;;;;;;;;8.74;86.05;102117.13;1901145;75;21073;-73
2021/04/24 05:27:47;;;;;;;;;;;;;;;8.82;84.71;102118.53;1901106;75;20282;-73
2021/04/24 05:30:16;;;;;;;;;;;;;;;8.87;83.01;102122.27;1901026;75;20215;-74
2021/04/24 05:32:45;;;;;;;;;;;;;;;8.86;82.98;102122.72;1901315;75;20498;-74
2021/04/24 05:35:14;;;;;;;;;;;;;;;8.87;83.39;102121.80;1901249;75;21724;-74
2021/04/24 05:37:42;;;;;;;;;;;;;;;8.91;83.71;102122.53;1901034;75;20147;-72
2021/04/24 05:40:10;;;;;;;;;;;;;;;8.98;83.48;102121.42;1901124;75;20124;-73
2021/04/24 05:42:38;;;;;;;;;;;;;;;9.08;81.92;102125.81;1901108;75;20720;-73
2021/04/24 05:45:12;;;;;;;;;;;;;;;9.20;82.08;102127.95;1901037;75;20482;-74
2021/04/24 05:47:46;;;;;;;;;;;;;;;9.31;82.48;102127.11;1901041;75;21390;-73
2021/04/24 05:50:16;;;;;;;;;;;;;;;9.42;82.57;102124.50;1900828;75;20143;-73
2021/04/24 05:52:44;;;;;;;;;;;;;;;9.55;81.68;102122.28;1900968;75;20143;-74
2021/04/24 05:55:13;;;;;;;;;;;;;;;9.62;81.57;102121.59;1900999;75;20159;-72
2021/04/24 05:57:41;;;;;;;;;;;;;;;9.67;79.79;102126.17;1901147;75;20501;-73
2021/04/24 06:00:13;;;;;;;;;;;;;;;9.69;77.50;102126.49;1900917;75;21788;-76
2021/04/24 06:02:41;;;;;;;;;;;;;;;9.77;75.68;102129.61;1900927;75;20123;-75
2021/04/24 06:05:10;;;;;;;;;;;;;;;9.85;75.90;102137.10;1901121;75;20127;-75
2021/04/24 06:07:39;;;;;;;;;;;;;;;9.89;74.07;102138.20;1901022;75;20199;-75
2021/04/24 06:10:09;;;;;;;;;;;;;;;9.90;74.02;102136.45;1901049;75;20242;-74
2021/04/24 06:12:40;;;;;;;;;;;;;;;9.91;74.49;102138.16;1901125;75;21270;-73
2021/04/24 06:15:09;;;;;;;;;;;;;;;9.94;74.69;102139.33;1900886;75;20266;-76
2021/04/24 06:17:37;;;;;;;;;;;;;;;9.96;74.51;102143.98;1901098;75;20287;-73
2021/04/24 06:20:07;;;;;;;;;;;;;;;10.01;75.32;102140.33;1900564;75;20123;-72
2021/04/24 06:22:36;;;;;;;;;;;;;;;10.11;75.50;102145.51;1899091;75;20124;-75
2021/04/24 06:25:09;;;;;;;;;;;;;;;10.17;75.49;102149.66;1898836;75;21772;-73
2021/04/24 06:27:38;;;;;;;;;;;;;;;10.23;72.45;102140.33;1898665;75;20199;-74
2021/04/24 06:30:07;;;;;;;;;;;;;;;10.29;70.78;102145.27;1898803;75;20497;-74
2021/04/24 06:32:36;;;;;;;;;;;;;;;10.33;70.12;102140.34;1898981;75;20493;-72
2021/04/24 06:35:05;;;;;;;;;;;;;;;10.35;70.91;102145.45;1898835;75;20286;-74
2021/04/24 06:37:34;;;;;;;;;;;;;;;10.32;70.47;102143.84;1898714;75;21352;-75
2021/04/24 06:40:03;;;;;;;;;;;;;;;10.27;71.30;102148.38;1899004;75;20485;-74
2021/04/24 06:42:32;;;;;;;;;;;;;;;10.25;72.33;102146.73;1898825;75;20266;-75
2021/04/24 06:45:01;;;;;;;;;;;;;;;10.27;73.18;102151.42;1898877;75;20226;-72
2021/04/24 06:47:29;;;;;;;;;;;;;;;10.28;73.35;102149.20;1898838;75;20151;-73
2021/04/24 06:50:00;;;;;;;;;;;;;;;10.29;73.51;102145.27;1867294;75;20215;-73
2021/04/24 06:52:27;;;;;;;;;;;;;;;10.31;74.23;102149.92;1899098;75;20194;-73
2021/04/24 06:54:55;;;;;;;;;;;;;;;10.36;74.58;102149.75;1898923;75;20218;-73
2021/04/24 06:57:23;;;;;;;;;;;;;;;10.45;74.43;102154.55;1898919;75;20227;-73
2021/04/24 06:59:56;;;;;;;;;;;;;;;10.51;73.46;102159.03;1899048;75;20159;-72
2021/04/24 07:02:24;;;;;;;;;;;;;;;10.60;72.27;102151.30;1899101;75;21690;-73
2021/04/24 07:04:51;;;;;;;;;;;;;;;10.70;70.62;102149.16;1898849;75;20132;-74
2021/04/24 07:07:19;;;;;;;;;;;;;;;10.76;70.08;102156.23;1898950;75;20119;-75
2021/04/24 07:09:47;;;;;;;;;;;;;;;10.80;68.29;102159.09;1899006;75;20183;-74
2021/04/24 07:12:17;;;;;;;;;;;;;;;10.85;67.05;102153.72;1899007;75;20203;-75
2021/04/24 07:14:46;;;;;;;;;;;;;;;10.89;66.84;102153.50;1898855;75;21355;-74
2021/04/24 07:17:14;;;;;;;;;;;;;;;10.93;66.05;102154.20;1898938;75;20104;-75
2021/04/24 07:19:42;;;;;;;;;;;;;;;10.96;65.14;102157.52;1898893;75;20238;-75
2021/04/24 07:22:10;;;;;;;;;;;;;;;10.98;64.35;102153.09;1900527;75;20655;-75
2021/04/24 07:24:44;;;;;;;;;;;;;;;11.00;64.28;102149.98;1901227;75;20509;-74
2021/04/24 07:27:08;;;;;;;;;;;;;;;11.06;63.79;102151.02;1900820;75;21315;-76
2021/04/24 07:29:38;;;;;;;;;;;;;;;11.10;63.46;102153.02;1901245;75;20231;-75
2021/04/24 07:32:07;;;;;;;;;;;;;;;11.21;63.40;102148.63;1901084;75;20211;-75
2021/04/24 07:34:34;;;;;;;;;;;;;;;11.29;63.29;102139.59;1901043;75;20305;-74
2021/04/24 07:37:03;;;;;;;;;;;;;;;11.39;63.04;102140.83;1901150;75;20159;-72
2021/04/24 07:39:31;;;;;;;;;;;;;;;11.51;63.17;102144.64;1901054;75;21180;-74
2021/04/24 07:41:59;;;;;;;;;;;;;;;11.66;63.01;102147.83;1901352;75;20876;-74
2021/04/24 07:44:28;;;;;;;;;;;;;;;11.82;61.98;102142.77;1901121;75;20505;-73
2021/04/24 07:46:56;;;;;;;;;;;;;;;11.96;61.24;102145.11;1901023;75;20214;-73
2021/04/24 07:49:24;;;;;;;;;;;;;;;12.07;61.07;102138.91;1901215;75;20103;-74
2021/04/24 07:51:51;;;;;;;;;;;;;;;12.15;60.55;102141.16;1901073;75;21165;-74
2021/04/24 07:54:19;;;;;;;;;;;;;;;12.18;60.28;102143.61;1901304;75;20124;-74
2021/04/24 07:56:48;;;;;;;;;;;;;;;12.18;60.11;102139.25;1901409;75;20175;-74
2021/04/24 07:59:15;;;;;;;;;;;;;;;12.21;60.47;102139.55;1901041;75;20124;-74
2021/04/24 08:01:43;;;;;;;;;;;;;;;12.23;60.36;102136.85;1901099;75;20124;-74
2021/04/24 08:04:12;;;;;;;;;;;;;;;12.24;59.92;102136.80;1901041;75;22338;-74
2021/04/24 08:06:40;;;;;;;;;;;;;;;12.26;59.54;102140.60;1901151;75;20949;-74
2021/04/24 08:09:08;;;;;;;;;;;;;;;12.29;59.89;102139.15;1901214;75;20477;-76
2021/04/24 08:11:35;;;;;;;;;;;;;;;12.29;58.90;102138.70;1901322;75;20147;-74
2021/04/24 08:14:04;;;;;;;;;;;;;;;12.33;58.71;102139.39;1901187;75;20135;-78
2021/04/24 08:16:31;;;;;;;;;;;;;;;12.40;58.04;102136.41;1901224;75;21623;-78
2021/04/24 08:18:59;;;;;;;;;;;;;;;12.39;57.05;102133.42;1901065;75;20135;-76
2021/04/24 08:21:29;;;;;;;;;;;;;;;12.36;57.42;102134.03;1900917;75;20262;-75
2021/04/24 08:23:59;;;;;;;;;;;;;;;12.36;57.68;102131.42;1901150;75;20219;-73
2021/04/24 08:26:28;;;;;;;;;;;;;;;12.42;57.95;102131.11;1900941;75;20420;-73
2021/04/24 08:28:57;;;;;;;;;;;;;;;12.49;58.62;102128.59;1900695;75;21237;-76
2021/04/24 08:31:24;;;;;;;;;;;;;;;12.59;59.00;102128.51;1901181;75;20215;-77
2021/04/24 08:33:54;;;;;;;;;;;;;;;12.77;58.74;102129.31;1900650;75;20128;-74
2021/04/24 08:36:23;;;;;;;;;;;;;;;12.98;57.77;102135.58;1901225;75;20139;-74
2021/04/24 08:38:51;;;;;;;;;;;;;;;13.19;56.66;102129.70;1901028;75;20191;-74
2021/04/24 08:41:19;;;;;;;;;;;;;;;13.37;56.69;102130.00;1901396;75;22061;-75
2021/04/24 08:43:48;;;;;;;;;;;;;;;13.47;55.32;102122.52;1900920;75;20583;-74
2021/04/24 08:46:18;;;;;;;;;;;;;;;13.42;54.26;102120.19;1901369;75;20575;-76
2021/04/24 08:48:46;;;;;;;;;;;;;;;13.36;54.70;102128.80;1901062;75;20215;-74
2021/04/24 08:51:14;;;;;;;;;;;;;;;13.34;54.92;102128.05;1901208;75;20219;-75
2021/04/24 08:53:42;;;;;;;;;;;;;;;13.35;56.14;102121.89;1901117;75;22100;-75
2021/04/24 08:56:09;;;;;;;;;;;;;;;13.38;56.21;102122.57;1901268;75;20139;-75
2021/04/24 08:58:37;;;;;;;;;;;;;;;13.43;57.00;102119.27;1901112;75;20202;-78
2021/04/24 09:01:06;;;;;;;;;;;;;;;13.52;55.02;102113.54;1901232;75;20266;-75
2021/04/24 09:03:34;;;;;;;;;;;;;;;13.59;53.31;102115.34;1901007;75;20478;-74
2021/04/24 09:06:02;;;;;;;;;;;;;;;13.62;52.13;102112.11;1901104;75;21677;-75
2021/04/24 09:08:30;;;;;;;;;;;;;;;13.65;51.33;102107.17;1901251;75;20139;-74
2021/04/24 09:11:03;;;;;;;;;;;;;;;13.71;52.67;102109.44;1899869;75;20147;-75
2021/04/24 09:13:30;;;;;;;;;;;;;;;13.83;51.48;102102.68;1901049;75;20206;-74
2021/04/24 09:15:59;;;;;;;;;;;;;;;13.89;50.85;102112.77;1901321;75;20258;-75
2021/04/24 09:18:28;;;;;;;;;;;;;;;13.96;50.72;102104.52;1901082;75;21198;-79
2021/04/24 09:20:59;;;;;;;;;;;;;;;14.02;48.97;102107.23;1900990;75;20103;-75
2021/04/24 09:23:31;;;;;;;;;;;;;;;14.05;49.44;102094.00;1900544;75;20182;-75
2021/04/24 09:26:07;;;;;;;;;;;;;;;14.12;48.04;102096.17;1900979;75;20663;-73
2021/04/24 09:28:40;;;;;;;;;;;;;;;14.15;47.28;102093.39;1901366;75;20123;-74
2021/04/24 09:31:21;;;;;;;;;;;;;;;14.21;46.16;102094.33;1901079;75;21642;-75
2021/04/24 09:33:51;;;;;;;;;;;;;;;14.15;45.97;102088.16;1901008;75;20231;-75
2021/04/24 09:36:23;;;;;;;;;;;;;;;14.08;46.04;102083.38;1901003;75;20239;-75
2021/04/24 09:38:55;;;;;;;;;;;;;;;14.00;45.89;102083.84;1901072;75;20724;-76
2021/04/24 09:41:23;;;;;;;;;;;;;;;13.93;46.59;102078.59;1900853;75;20140;-74
2021/04/24 09:44:07;;;;;;;;;;;;;;;13.93;46.81;102079.90;1901017;75;21170;-74
2021/04/24 09:46:53;;;;;;;;;;;;;;;14.00;47.53;102074.70;1894014;75;20211;-74
2021/04/24 09:49:31;;;;;;;;;;;;;;;14.20;48.53;102073.52;1901129;75;20520;-75
2021/04/24 09:52:06;;;;;;;;;;;;;;;14.99;48.75;102072.22;1900922;75;20250;-75
2021/04/24 09:54:37;;;;;;;;;;;;;;;15.99;42.97;102068.36;1901065;75;20466;-74
2021/04/24 09:57:10;;;;;;;;;;;;;;;16.80;40.73;102056.69;1901148;75;21256;-77
2021/04/24 09:59:57;;;;;;;;;;;;;;;17.45;37.61;102049.34;1900582;75;20234;-76
2021/04/24 10:02:30;;;;;;;;;;;;;;;18.50;37.52;102048.05;1901156;75;20494;-75
2021/04/24 10:05:19;;;;;;;;;;;;;;;19.50;35.07;102047.45;1901152;75;20624;-78
2021/04/24 10:07:48;;;;;;;;;;;;;;;20.41;35.36;102045.55;1901244;75;20480;-76
2021/04/24 10:10:34;;;;;;;;;;;;;;;21.05;33.72;102049.56;1901227;75;21178;-75
2021/04/24 10:13:03;;;;;;;;;;;;;;;21.68;31.93;102044.78;1901043;75;20449;-78
2021/04/24 10:15:44;;;;;;;;;;;;;;;22.30;28.99;102042.99;1901243;75;20211;-74
2021/04/24 10:18:13;;;;;;;;;;;;;;;22.77;29.39;102039.84;1901386;75;20225;-75
2021/04/24 10:20:44;;;;;;;;;;;;;;;23.49;28.96;102035.83;1901095;75;20103;-75
2021/04/24 10:23:13;;;;;;;;;;;;;;;23.98;28.31;102041.05;1899400;75;21241;-75
2021/04/24 10:25:41;;;;;;;;;;;;;;;23.70;27.87;102037.70;1898766;75;20225;-78
2021/04/24 10:28:09;;;;;;;;;;;;;;;23.26;27.92;102028.47;1898972;75;20508;-76
2021/04/24 10:30:39;;;;;;;;;;;;;;;22.78;28.39;102033.58;1899055;75;20209;-76
2021/04/24 10:33:06;;;;;;;;;;;;;;;22.27;28.28;102038.47;1899099;75;20557;-77
2021/04/24 10:35:35;;;;;;;;;;;;;;;22.23;28.80;102041.05;1898880;75;21178;-75
2021/04/24 10:38:03;;;;;;;;;;;;;;;22.18;29.07;102026.92;1898769;75;20163;-77
2021/04/24 10:40:31;;;;;;;;;;;;;;;21.59;30.00;102025.33;1898793;75;20211;-77
2021/04/24 10:42:59;;;;;;;;;;;;;;;21.13;30.84;102015.05;1898930;75;20761;-74
2021/04/24 10:45:34;;;;;;;;;;;;;;;20.97;31.32;102017.71;1898980;75;20219;-76
2021/04/24 10:48:02;;;;;;;;;;;;;;;21.58;31.39;102010.44;1898946;75;21393;-81
2021/04/24 10:50:42;;;;;;;;;;;;;;;22.43;29.94;102018.86;1898802;75;20257;-75
2021/04/24 10:53:24;;;;;;;;;;;;;;;22.58;29.48;102014.75;1898686;75;20135;-76
2021/04/24 10:55:53;;;;;;;;;;;;;;;22.59;29.02;102013.78;1898905;75;20248;-75
2021/04/24 10:58:22;;;;;;;;;;;;;;;22.02;30.36;102016.95;1898894;75;20481;-74
2021/04/24 11:00:52;;;;;;;;;;;;;;;21.61;30.53;102015.44;1898845;75;20508;-76
2021/04/24 11:03:38;;;;;;;;;;;;;;;21.42;30.92;102013.28;1898860;75;20207;-74
2021/04/24 11:06:09;;;;;;;;;;;;;;;20.66;31.25;102008.66;1899210;75;20489;-73
2021/04/24 11:08:38;;;;;;;;;;;;;;;19.84;32.56;102006.48;1898869;75;20223;-78
2021/04/24 11:11:08;;;;;;;;;;;;;;;19.75;33.97;102009.89;1898974;75;20493;-74
2021/04/24 11:13:39;;;;;;;;;;;;;;;19.69;33.18;102007.77;1898843;75;21051;-74
2021/04/24 11:16:09;;;;;;;;;;;;;;;19.92;33.79;102010.14;1898649;75;20207;-76
2021/04/24 11:18:40;;;;;;;;;;;;;;;20.03;32.56;102013.20;1898773;75;20179;-75
2021/04/24 11:21:10;;;;;;;;;;;;;;;20.16;32.11;102011.67;1898859;75;20262;-74
2021/04/24 11:23:42;;;;;;;;;;;;;;;19.84;32.26;102009.13;1900475;75;20251;-74
2021/04/24 11:26:18;;;;;;;;;;;;;;;19.75;32.97;102005.43;1901012;75;21120;-74
2021/04/24 11:29:09;;;;;;;;;;;;;;;19.88;32.93;102002.61;1900968;75;20580;-75
2021/04/24 11:31:56;;;;;;;;;;;;;;;19.92;32.59;102002.71;1901288;75;20290;-73
2021/04/24 11:34:36;;;;;;;;;;;;;;;19.81;32.56;101997.52;1901067;75;20220;-75
2021/04/24 11:37:23;;;;;;;;;;;;;;;19.90;31.95;101988.37;1901136;75;20594;-75
2021/04/24 11:40:16;;;;;;;;;;;;;;;19.92;32.32;101987.75;1902605;75;21253;-73
2021/04/24 11:42:53;;;;;;;;;;;;;;;19.85;31.41;101981.31;1903198;75;20103;-74
2021/04/24 11:45:45;;;;;;;;;;;;;;;20.32;31.66;101985.23;1904086;75;20203;-73
2021/04/24 11:48:13;;;;;;;;;;;;;;;20.52;30.91;101984.32;1902717;75;20524;-73
2021/04/24 11:50:42;;;;;;;;;;;;;;;20.52;31.46;101979.05;1902952;75;20324;-75
2021/04/24 11:53:10;;;;;;;;;;;;;;;20.33;32.05;101977.65;1903262;75;21176;-74
2021/04/24 11:55:39;;;;;;;;;;;;;;;20.21;31.96;101979.16;1903174;75;20194;-74
2021/04/24 11:58:10;;;;;;;;;;;;;;;20.03;31.87;101973.19;1901347;75;20152;-75
2021/04/24 12:00:38;;;;;;;;;;;;;;;19.86;31.92;101968.98;1901111;75;20270;-74
2021/04/24 12:03:08;;;;;;;;;;;;;;;19.72;32.06;101963.55;1901372;75;20572;-74
2021/04/24 12:05:42;;;;;;;;;;;;;;;19.53;32.54;101964.25;1901368;75;21177;-75
2021/04/24 12:08:09;;;;;;;;;;;;;;;19.39;32.92;101961.07;1900403;75;20215;-76
2021/04/24 12:10:37;;;;;;;;;;;;;;;19.29;32.33;101960.15;1901260;75;20557;-74
2021/04/24 12:13:07;;;;;;;;;;;;;;;19.31;32.62;101967.43;1901301;75;20235;-77
2021/04/24 12:15:38;;;;;;;;;;;;;;;19.42;32.57;101962.16;1901207;75;20156;-73
2021/04/24 12:18:06;;;;;;;;;;;;;;;19.50;31.96;101955.30;1901308;75;21590;-74
2021/04/24 12:20:42;;;;;;;;;;;;;;;20.05;32.83;101946.22;1901132;75;20119;-76
2021/04/24 12:23:14;;;;;;;;;;;;;;;20.68;33.32;101940.28;1901112;75;20223;-77
2021/04/24 12:25:43;;;;;;;;;;;;;;;21.23;30.82;101939.34;1901126;75;20233;-77
2021/04/24 12:28:11;;;;;;;;;;;;;;;21.28;28.33;101934.02;1901088;75;20211;-75
2021/04/24 12:30:44;;;;;;;;;;;;;;;20.79;28.26;101934.91;1901203;75;22274;-74
2021/04/24 12:33:14;;;;;;;;;;;;;;;20.19;29.33;101932.34;1900848;75;20266;-74
2021/04/24 12:35:49;;;;;;;;;;;;;;;20.00;29.34;101931.30;1901117;75;20599;-74
2021/04/24 12:38:22;;;;;;;;;;;;;;;20.21;30.32;101924.64;1901010;75;20242;-73
2021/04/24 12:40:55;;;;;;;;;;;;;;;20.43;29.63;101919.68;1901049;75;20286;-75
2021/04/24 12:43:27;;;;;;;;;;;;;;;20.65;29.09;101919.94;1901214;75;21347;-76
2021/04/24 12:46:01;;;;;;;;;;;;;;;20.59;28.67;101922.64;1900828;75;20103;-74
2021/04/24 12:48:37;;;;;;;;;;;;;;;20.54;28.09;101912.52;1901202;75;20182;-77
2021/04/24 12:51:05;;;;;;;;;;;;;;;20.44;29.62;101916.92;1900826;75;20179;-73